Time;durP1;ratioP1;P1;durP2;ratioP2;P2;SDS_P1;SDS_P2;PMS_P1;PMS_P2;Temp;Humidity;BMP_temperature;BMP_pressure;BME280_temperature;BME280_humidity;BME280_pressure;Samples;Min_cycle;Max_cycle;Signal;HPM_P1;HPM_P2
2022/04/29 00:00:05;;;;;;;8.40;3.40;;;5.50;99.90;;;;;;5006816;28;20555;-53
2022/04/29 00:02:33;;;;;;;3.70;3.40;;;5.40;99.90;;;;;;5004724;28;21924;-53
2022/04/29 00:05:00;;;;;;;3.73;3.43;;;5.50;99.90;;;;;;5003280;28;20570;-54
2022/04/29 00:07:26;;;;;;;8.73;3.97;;;5.40;99.90;;;;;;5005463;28;20555;-54
2022/04/29 00:09:53;;;;;;;5.90;4.33;;;5.40;99.90;;;;;;5003350;28;20559;-54
2022/04/29 00:12:20;;;;;;;3.93;3.33;;;5.40;99.90;;;;;;5003598;28;20951;-53
2022/04/29 00:14:47;;;;;;;3.97;3.33;;;5.30;99.90;;;;;;5003937;28;20973;-53
2022/04/29 00:17:14;;;;;;;6.30;3.60;;;5.30;99.90;;;;;;5001960;28;20885;-53
2022/04/29 00:19:43;;;;;;;4.33;3.93;;;5.30;99.90;;;;;;5005981;28;20483;-52
2022/04/29 00:22:10;;;;;;;6.53;3.80;;;5.30;99.90;;;;;;5003954;28;20479;-55
2022/04/29 00:24:36;;;;;;;5.23;3.57;;;5.30;99.90;;;;;;5004175;28;20488;-53
2022/04/29 00:27:04;;;;;;;7.23;3.80;;;5.30;99.90;;;;;;5002394;28;20597;-54
2022/04/29 00:29:30;;;;;;;5.73;3.97;;;5.30;99.90;;;;;;5006243;28;20506;-53
2022/04/29 00:31:57;;;;;;;4.27;3.93;;;5.20;99.90;;;;;;5003571;28;20575;-54
2022/04/29 00:34:23;;;;;;;4.93;4.23;;;5.20;99.90;;;;;;5002786;28;20541;-54
2022/04/29 00:36:51;;;;;;;6.10;4.13;;;5.20;99.90;;;;;;5008192;28;20495;-52
2022/04/29 00:39:18;;;;;;;7.77;4.37;;;5.10;99.90;;;;;;5005211;28;20499;-53
2022/04/29 00:41:45;;;;;;;7.10;4.77;;;5.00;99.90;;;;;;5002139;28;20575;-53
2022/04/29 00:44:12;;;;;;;3.67;3.33;;;5.00;99.90;;;;;;5002437;28;20579;-54
2022/04/29 00:46:40;;;;;;;3.60;3.30;;;4.90;99.90;;;;;;5003431;28;20495;-52
2022/04/29 00:49:09;;;;;;;4.77;4.43;;;4.90;99.90;;;;;;5004645;28;21300;-54
2022/04/29 00:51:37;;;;;;;4.33;3.53;;;4.90;99.90;;;;;;5004775;28;20537;-52
2022/04/29 00:54:14;;;;;;;6.03;4.50;;;4.90;99.90;;;;;;5003223;28;20601;-52
2022/04/29 00:56:43;;;;;;;4.50;3.97;;;4.90;99.90;;;;;;5008225;28;20522;-52
2022/04/29 00:59:15;;;;;;;4.33;3.63;;;4.80;99.90;;;;;;5006469;28;20884;-53
2022/04/29 01:01:45;;;;;;;3.97;3.57;;;4.80;99.90;;;;;;5003208;28;20528;-53
2022/04/29 01:04:15;;;;;;;4.63;3.70;;;4.70;99.90;;;;;;5005635;28;20560;-53
2022/04/29 01:06:41;;;;;;;7.43;3.60;;;4.70;99.90;;;;;;5004850;28;20546;-53
2022/04/29 01:09:09;;;;;;;5.90;4.23;;;4.60;99.90;;;;;;5002820;28;20470;-52
2022/04/29 01:11:37;;;;;;;7.43;3.87;;;4.60;99.90;;;;;;5003166;28;20547;-52
2022/04/29 01:14:04;;;;;;;4.23;4.00;;;4.60;99.90;;;;;;5002355;28;20546;-53
2022/04/29 01:16:30;;;;;;;3.90;3.60;;;4.60;99.90;;;;;;5000965;28;20471;-53
2022/04/29 01:18:57;;;;;;;3.93;3.60;;;4.70;99.90;;;;;;5003372;28;20519;-53
2022/04/29 01:21:24;;;;;;;12.43;4.07;;;4.60;99.90;;;;;;5006182;28;20555;-53
2022/04/29 01:23:51;;;;;;;4.40;4.00;;;4.50;99.90;;;;;;5010475;28;20547;-53
2022/04/29 01:26:18;;;;;;;5.50;5.00;;;4.50;99.90;;;;;;5010337;28;20527;-52
2022/04/29 01:28:46;;;;;;;3.97;3.67;;;4.30;99.90;;;;;;5007542;28;20550;-53
2022/04/29 01:31:14;;;;;;;4.97;4.13;;;4.30;99.90;;;;;;5006410;28;20467;-53
2022/04/29 01:33:42;;;;;;;4.00;3.63;;;4.30;99.90;;;;;;5004654;28;20485;-52
2022/04/29 01:36:10;;;;;;;3.57;3.17;;;4.20;99.90;;;;;;5007492;28;20455;-52
2022/04/29 01:38:37;;;;;;;5.50;3.20;;;4.10;99.90;;;;;;5006864;28;20949;-52
2022/04/29 01:41:06;;;;;;;5.30;4.13;;;4.10;99.90;;;;;;5004904;28;20850;-53
2022/04/29 01:43:32;;;;;;;5.40;3.90;;;4.10;99.90;;;;;;5006266;28;20479;-54
2022/04/29 01:45:59;;;;;;;13.73;6.63;;;4.10;99.90;;;;;;5003473;28;20549;-52
2022/04/29 01:48:26;;;;;;;6.70;4.77;;;4.10;99.90;;;;;;5004240;28;20475;-52
2022/04/29 01:50:53;;;;;;;6.27;3.80;;;4.10;99.90;;;;;;5002368;28;20560;-52
2022/04/29 01:53:20;;;;;;;3.80;3.50;;;4.00;99.90;;;;;;5008357;28;20525;-52
2022/04/29 01:55:46;;;;;;;4.00;3.57;;;4.00;99.90;;;;;;5013587;28;20514;-53
2022/04/29 01:58:14;;;;;;;5.40;4.27;;;3.90;99.90;;;;;;5004821;28;20551;-52
2022/04/29 02:00:41;;;;;;;4.57;4.20;;;3.90;99.90;;;;;;5004096;28;20547;-52
2022/04/29 02:03:09;;;;;;;5.57;4.10;;;3.90;99.90;;;;;;5006469;28;20570;-52
2022/04/29 02:05:35;;;;;;;9.10;4.37;;;3.80;99.90;;;;;;5005497;28;20482;-52
2022/04/29 02:08:02;;;;;;;6.33;3.53;;;4.00;99.90;;;;;;5016221;28;20550;-52
2022/04/29 02:10:28;;;;;;;7.43;3.83;;;4.00;99.90;;;;;;5006119;28;20459;-53
2022/04/29 02:12:55;;;;;;;6.13;4.07;;;4.10;99.90;;;;;;5007592;28;20483;-52
2022/04/29 02:15:23;;;;;;;3.87;3.67;;;3.90;99.90;;;;;;5004585;28;20490;-52
2022/04/29 02:17:49;;;;;;;3.43;3.23;;;3.90;99.90;;;;;;5007814;28;20562;-52
2022/04/29 02:20:16;;;;;;;5.03;3.80;;;3.70;99.90;;;;;;5006728;28;20464;-53
2022/04/29 02:22:42;;;;;;;3.97;3.67;;;3.80;99.90;;;;;;5006620;28;20510;-51
2022/04/29 02:25:09;;;;;;;6.07;3.73;;;3.80;99.90;;;;;;5007034;28;21087;-53
2022/04/29 02:27:38;;;;;;;4.20;3.83;;;3.60;99.90;;;;;;5008812;28;20470;-53
2022/04/29 02:30:06;;;;;;;4.20;3.80;;;3.60;99.90;;;;;;5006301;28;20455;-53
2022/04/29 02:32:34;;;;;;;4.87;3.77;;;3.60;99.90;;;;;;5007377;28;20602;-53
2022/04/29 02:35:01;;;;;;;4.77;3.93;;;3.50;99.90;;;;;;5007194;28;20491;-54
2022/04/29 02:37:27;;;;;;;4.00;3.80;;;3.40;99.90;;;;;;5006694;28;20463;-52
2022/04/29 02:39:54;;;;;;;7.47;4.53;;;3.40;99.90;;;;;;5004070;28;20510;-54
2022/04/29 02:42:21;;;;;;;7.70;3.80;;;3.60;99.90;;;;;;5006414;28;20522;-52
2022/04/29 02:44:47;;;;;;;4.43;4.00;;;3.60;99.90;;;;;;5011221;28;20499;-52
2022/04/29 02:47:14;;;;;;;5.60;4.30;;;3.50;99.90;;;;;;5005477;28;20559;-53
2022/04/29 02:49:43;;;;;;;5.73;4.60;;;3.50;99.90;;;;;;5004901;28;20530;-54
2022/04/29 02:52:10;;;;;;;4.70;4.30;;;3.40;99.90;;;;;;5006324;28;22214;-55
2022/04/29 02:54:37;;;;;;;10.03;5.47;;;3.30;99.90;;;;;;5005255;28;20558;-55
2022/04/29 02:57:05;;;;;;;5.80;5.03;;;3.30;99.90;;;;;;5006348;28;21689;-55
2022/04/29 02:59:32;;;;;;;4.57;4.20;;;3.20;99.90;;;;;;5008167;28;20638;-54
2022/04/29 03:01:58;;;;;;;9.10;4.80;;;3.20;99.90;;;;;;5005393;28;20507;-54
2022/04/29 03:04:25;;;;;;;7.40;4.40;;;3.30;99.90;;;;;;5005567;28;20463;-53
2022/04/29 03:06:53;;;;;;;8.97;4.57;;;3.20;99.90;;;;;;5006030;28;20606;-51
2022/04/29 03:09:20;;;;;;;5.80;4.50;;;3.20;99.90;;;;;;5005397;28;20456;-52
2022/04/29 03:11:47;;;;;;;6.70;4.77;;;3.20;99.90;;;;;;5005291;28;20488;-53
2022/04/29 03:14:14;;;;;;;7.87;5.17;;;3.20;99.90;;;;;;5006015;28;20463;-51
2022/04/29 03:16:41;;;;;;;5.47;4.27;;;3.10;99.90;;;;;;5002146;28;20547;-51
2022/04/29 03:19:08;;;;;;;7.17;5.07;;;3.10;99.90;;;;;;5006884;28;20522;-53
2022/04/29 03:21:35;;;;;;;5.03;4.47;;;3.00;99.90;;;;;;5005422;28;20467;-53
2022/04/29 03:24:03;;;;;;;17.60;4.50;;;3.00;97.30;;;;;;5002781;28;20551;-52
2022/04/29 03:26:30;;;;;;;6.10;4.73;;;3.00;99.90;;;;;;5006795;28;20483;-51
2022/04/29 03:28:57;;;;;;;5.63;5.07;;;3.00;99.90;;;;;;5004630;28;20587;-51
2022/04/29 03:31:24;;;;;;;6.10;4.40;;;3.20;99.90;;;;;;5000512;28;20653;-52
2022/04/29 03:33:50;;;;;;;5.70;4.17;;;3.20;99.90;;;;;;5005913;28;20538;-52
2022/04/29 03:36:17;;;;;;;5.30;4.60;;;3.10;99.90;;;;;;5006586;28;20546;-53
2022/04/29 03:38:44;;;;;;;7.80;4.50;;;3.20;99.90;;;;;;5005592;28;20551;-52
2022/04/29 03:41:12;;;;;;;8.10;4.97;;;3.10;99.90;;;;;;5004644;28;20513;-51
2022/04/29 03:43:39;;;;;;;6.43;4.60;;;3.10;99.90;;;;;;5004970;28;20554;-52
2022/04/29 03:46:06;;;;;;;6.70;4.70;;;3.20;99.90;;;;;;5004319;28;20537;-52
2022/04/29 03:49:35;;;;;;;5.93;5.00;;;3.10;99.90;;;;;;5004670;28;20474;-51
2022/04/29 03:51:20;;;;;;;5.53;4.33;;;3.00;99.90;;;;;;5004074;28;20470;-53
2022/04/29 03:53:47;;;;;;;5.50;4.50;;;3.00;99.90;;;;;;5004644;28;20889;-53
2022/04/29 03:56:16;;;;;;;8.07;4.33;;;3.10;95.70;;;;;;5004374;28;21009;-51
2022/04/29 03:58:42;;;;;;;5.07;4.60;;;3.10;99.90;;;;;;5006907;28;20554;-52
2022/04/29 04:01:09;;;;;;;5.17;4.67;;;3.00;99.90;;;;;;5001191;28;20452;-53
2022/04/29 04:03:35;;;;;;;5.80;5.20;;;3.00;99.90;;;;;;5008665;28;20561;-51
2022/04/29 04:08:46;;;;;;;6.63;4.67;;;3.10;98.20;;;;;;5005582;28;20446;-51
2022/04/29 04:11:12;;;;;;;5.73;5.10;;;3.10;93.10;;;;;;5002017;28;21373;-51
2022/04/29 04:13:41;;;;;;;6.60;5.00;;;3.10;99.90;;;;;;5006736;28;20559;-54
2022/04/29 04:16:07;;;;;;;4.50;4.10;;;3.10;99.90;;;;;;5000602;28;20460;-52
2022/04/29 04:18:34;;;;;;;6.53;5.17;;;3.10;99.90;;;;;;5001370;28;20467;-52
2022/04/29 04:21:01;;;;;;;9.10;5.00;;;3.20;99.90;;;;;;4999507;28;20459;-53
2022/04/29 04:23:28;;;;;;;4.70;4.10;;;3.30;99.90;;;;;;5002500;28;21100;-52
2022/04/29 04:25:56;;;;;;;6.70;4.33;;;3.40;99.90;;;;;;5003959;28;20582;-52
2022/04/29 04:28:23;;;;;;;5.00;4.50;;;3.60;99.90;;;;;;5005975;28;20923;-53
2022/04/29 04:30:51;;;;;;;5.57;4.70;;;3.70;99.90;;;;;;4998444;28;20499;-51
2022/04/29 04:33:17;;;;;;;15.83;6.10;;;3.80;99.90;;;;;;5001286;28;20566;-51
2022/04/29 04:35:44;;;;;;;4.83;4.43;;;3.90;99.90;;;;;;5003418;28;20543;-53
2022/04/29 04:38:11;;;;;;;5.20;4.70;;;4.00;99.90;;;;;;5005135;28;20483;-52
2022/04/29 04:40:37;;;;;;;5.50;4.90;;;4.10;99.90;;;;;;5004630;28;20596;-51
2022/04/29 04:43:04;;;;;;;4.40;4.17;;;4.20;99.90;;;;;;5005031;28;21035;-52
2022/04/29 04:45:30;;;;;;;5.90;4.87;;;4.40;99.90;;;;;;4996469;28;20575;-53
2022/04/29 04:47:58;;;;;;;4.90;4.60;;;4.60;99.90;;;;;;5001226;28;20460;-52
2022/04/29 04:50:25;;;;;;;8.37;5.10;;;4.70;99.90;;;;;;4992872;28;20550;-52
2022/04/29 04:52:51;;;;;;;8.10;5.00;;;4.80;99.90;;;;;;4997302;28;21105;-50
2022/04/29 04:57:51;;;;;;;8.90;4.83;;;5.00;99.90;;;;;;5022778;28;20474;-50
2022/04/29 05:00:18;;;;;;;7.57;4.53;;;5.10;99.90;;;;;;5025426;28;20490;-50
2022/04/29 05:02:44;;;;;;;9.80;4.53;;;5.30;99.90;;;;;;5027702;28;20921;-50
2022/04/29 05:05:12;;;;;;;5.53;4.40;;;5.40;99.90;;;;;;5023937;28;21034;-50
2022/04/29 05:07:40;;;;;;;7.73;4.57;;;5.50;99.90;;;;;;5019714;28;20598;-50
2022/04/29 05:10:08;;;;;;;4.87;4.37;;;5.70;99.90;;;;;;5026499;28;20696;-50
2022/04/29 05:12:39;;;;;;;13.43;5.20;;;5.90;99.90;;;;;;5024074;28;20563;-50
2022/04/29 05:15:06;;;;;;;4.70;4.20;;;6.10;99.90;;;;;;5026909;28;20983;-50
2022/04/29 05:17:33;;;;;;;5.30;4.80;;;6.30;99.90;;;;;;5025049;28;20597;-50
2022/04/29 05:20:00;;;;;;;8.23;5.27;;;6.40;99.90;;;;;;5025866;28;20558;-51
2022/04/29 05:22:29;;;;;;;7.97;5.40;;;6.50;99.90;;;;;;5025399;28;20561;-51
2022/04/29 05:24:55;;;;;;;7.43;5.33;;;6.60;99.90;;;;;;5028634;28;20466;-50
2022/04/29 05:27:22;;;;;;;5.73;5.20;;;6.70;99.90;;;;;;5025967;28;20574;-50
2022/04/29 05:29:49;;;;;;;6.87;5.00;;;6.80;99.90;;;;;;5023892;28;20546;-50
2022/04/29 05:32:16;;;;;;;7.50;5.27;;;6.80;99.90;;;;;;5027154;28;20498;-50
2022/04/29 05:34:43;;;;;;;5.70;4.97;;;7.00;99.90;;;;;;5023260;28;20466;-50
2022/04/29 05:37:10;;;;;;;7.83;5.30;;;7.20;99.90;;;;;;5023132;28;21075;-49
2022/04/29 05:42:23;;;;;;;7.73;5.17;;;7.50;99.90;;;;;;5026171;28;20473;-49
2022/04/29 05:44:50;;;;;;;10.63;5.77;;;7.60;99.90;;;;;;5027800;28;20597;-50
2022/04/29 05:47:16;;;;;;;8.10;5.50;;;7.70;99.90;;;;;;5020992;28;20586;-50
2022/04/29 05:49:43;;;;;;;10.67;5.70;;;7.80;99.90;;;;;;5021690;28;20545;-50
2022/04/29 05:52:11;;;;;;;6.03;5.43;;;7.90;99.90;;;;;;5028887;28;20537;-50
2022/04/29 05:54:39;;;;;;;19.10;7.43;;;8.00;99.90;;;;;;5024182;28;20550;-50
2022/04/29 05:57:06;;;;;;;14.63;5.57;;;8.20;99.90;;;;;;5024251;28;20907;-51
2022/04/29 05:59:33;;;;;;;11.00;6.23;;;8.30;99.90;;;;;;5025784;28;20545;-49
2022/04/29 06:02:00;;;;;;;11.43;5.80;;;8.40;99.90;;;;;;5022961;28;20482;-50
2022/04/29 06:04:27;;;;;;;11.60;6.53;;;8.60;99.90;;;;;;5025379;28;20491;-50
2022/04/29 06:06:53;;;;;;;8.67;6.20;;;8.70;99.90;;;;;;5028933;28;20577;-51
2022/04/29 06:09:20;;;;;;;6.53;5.20;;;8.90;99.90;;;;;;5024847;28;20474;-50
2022/04/29 06:11:47;;;;;;;7.53;5.23;;;9.10;21.90;;;;;;5022768;28;21056;-50
2022/04/29 06:14:14;;;;;;;8.23;5.43;;;9.30;31.60;;;;;;5030748;28;20550;-50
2022/04/29 06:16:41;;;;;;;8.03;6.03;;;9.40;41.40;;;;;;5029947;28;20501;-49
2022/04/29 06:19:07;;;;;;;12.30;5.93;;;9.60;44.40;;;;;;5028011;28;20553;-50
2022/04/29 06:21:34;;;;;;;13.23;5.50;;;9.90;49.80;;;;;;5028099;28;20576;-50
2022/04/29 06:24:01;;;;;;;5.13;4.63;;;10.20;69.00;;;;;;5029416;28;20494;-50
2022/04/29 06:26:27;;;;;;;6.73;4.97;;;10.20;88.20;;;;;;5029546;28;20582;-50
2022/04/29 06:28:55;;;;;;;18.97;6.23;;;10.50;86.60;;;;;;5029882;28;20470;-51
2022/04/29 06:31:22;;;;;;;17.57;4.33;;;10.70;99.90;;;;;;5025470;28;20474;-50
2022/04/29 06:33:48;;;;;;;15.07;5.10;;;10.80;99.90;;;;;;5032009;28;20537;-50
2022/04/29 06:36:15;;;;;;;8.63;4.10;;;11.00;99.90;;;;;;5030967;28;20569;-50
2022/04/29 06:38:42;;;;;;;9.40;5.23;;;11.10;99.90;;;;;;5028834;28;20490;-49
2022/04/29 06:41:08;;;;;;;14.37;4.50;;;11.10;99.90;;;;;;5030826;28;20907;-50
2022/04/29 06:43:35;;;;;;;15.53;4.90;;;11.20;99.90;;;;;;5027110;28;20964;-51
2022/04/29 06:46:03;;;;;;;12.73;5.00;;;11.40;99.90;;;;;;5028475;28;20506;-50
2022/04/29 06:48:29;;;;;;;14.83;3.53;;;11.70;99.90;;;;;;5028977;28;20557;-50
2022/04/29 06:50:56;;;;;;;7.70;4.50;;;11.80;99.90;;;;;;5024422;28;20463;-50
2022/04/29 06:53:22;;;;;;;5.13;3.50;;;12.10;99.90;;;;;;5031407;28;20912;-50
2022/04/29 06:55:49;;;;;;;10.07;3.80;;;12.30;99.90;;;;;;5028201;28;20577;-50
2022/04/29 06:58:15;;;;;;;12.90;3.60;;;12.70;99.90;;;;;;5028882;28;20557;-50
2022/04/29 07:00:43;;;;;;;5.60;3.23;;;12.80;99.90;;;;;;5024590;28;20550;-50
2022/04/29 07:03:11;;;;;;;15.90;3.50;;;13.20;99.90;;;;;;5025141;28;20487;-50
2022/04/29 07:05:38;;;;;;;9.13;3.37;;;13.40;99.90;;;;;;5027795;28;20511;-50
2022/04/29 07:08:05;;;;;;;12.57;3.97;;;13.60;99.90;;;;;;5027144;28;20483;-50
2022/04/29 07:10:32;;;;;;;18.83;4.20;;;13.40;99.90;;;;;;5030159;28;20486;-50
2022/04/29 07:12:58;;;;;;;5.33;3.37;;;13.40;99.90;;;;;;5026098;28;20559;-50
2022/04/29 07:15:25;;;;;;;6.73;2.90;;;13.60;99.90;;;;;;5022435;28;20463;-50
2022/04/29 07:17:52;;;;;;;5.00;2.97;;;13.90;99.90;;;;;;5025664;28;20538;-50
2022/04/29 07:20:19;;;;;;;13.27;2.90;;;14.20;99.90;;;;;;5026144;28;20458;-50
2022/04/29 07:22:46;;;;;;;9.03;3.70;;;14.40;99.90;;;;;;5029140;28;20486;-50
2022/04/29 07:25:14;;;;;;;15.73;4.20;;;14.60;99.90;;;;;;5020684;28;20463;-50
2022/04/29 07:27:41;;;;;;;6.10;3.23;;;14.50;99.90;;;;;;5027163;28;20568;-50
2022/04/29 07:30:10;;;;;;;9.50;3.10;;;14.30;99.90;;;;;;5021184;28;20463;-50
2022/04/29 07:32:36;;;;;;;9.00;3.50;;;14.10;99.90;;;;;;5028430;28;20542;-49
2022/04/29 07:43:17;;;;;;;8.43;3.70;;;14.40;99.90;;;;;;5028933;28;20442;-50
2022/04/29 07:45:44;;;;;;;14.53;3.63;;;14.70;99.90;;;;;;5030561;28;21023;-50
2022/04/29 07:48:11;;;;;;;12.40;4.13;;;14.40;99.90;;;;;;5031607;28;20566;-50
2022/04/29 07:50:39;;;;;;;7.20;3.20;;;14.60;99.90;;;;;;5029219;28;20554;-50
2022/04/29 07:53:08;;;;;;;13.30;3.03;;;14.80;99.90;;;;;;5031763;28;20851;-50
2022/04/29 07:55:35;;;;;;;5.50;2.50;;;14.90;99.90;;;;;;5030020;28;21071;-50
2022/04/29 07:58:03;;;;;;;9.03;2.60;;;14.70;99.90;;;;;;5029641;28;20475;-50
2022/04/29 08:00:31;;;;;;;6.47;2.90;;;14.90;99.90;;;;;;5025032;28;20466;-50
2022/04/29 08:03:00;;;;;;;8.80;3.00;;;15.00;99.90;;;;;;5029696;28;20471;-50
2022/04/29 08:05:27;;;;;;;8.73;3.70;;;15.00;99.90;;;;;;5028493;28;20924;-51
2022/04/29 08:07:55;;;;;;;8.43;4.30;;;15.10;99.90;;;;;;5029299;28;20574;-50
2022/04/29 08:10:23;;;;;;;5.43;2.77;;;15.30;99.90;;;;;;5028589;28;20556;-50
2022/04/29 08:12:50;;;;;;;16.33;3.00;;;15.60;99.90;;;;;;5027479;28;20509;-50
2022/04/29 08:15:18;;;;;;;10.13;3.37;;;15.70;99.90;;;;;;5023981;28;20470;-50
2022/04/29 08:17:45;;;;;;;27.30;4.50;;;15.70;99.90;;;;;;5024351;28;21035;-50
2022/04/29 08:20:12;;;;;;;9.83;2.90;;;16.10;99.90;;;;;;5028712;28;20545;-49
2022/04/29 08:22:40;;;;;;;20.40;2.90;;;16.10;99.90;;;;;;5029210;28;20491;-50
2022/04/29 08:25:07;;;;;;;3.10;2.10;;;16.30;99.90;;;;;;5029047;28;20463;-50
2022/04/29 08:27:35;;;;;;;3.40;2.10;;;16.60;99.90;;;;;;5029795;28;20763;-50
2022/04/29 08:30:02;;;;;;;3.70;1.70;;;16.60;99.90;;;;;;5028695;28;20885;-50
2022/04/29 08:32:28;;;;;;;5.37;2.10;;;17.10;99.90;;;;;;5024018;28;20459;-50
2022/04/29 08:34:55;;;;;;;17.10;3.43;;;17.30;99.90;;;;;;5031597;28;20487;-50
2022/04/29 08:37:22;;;;;;;5.37;2.30;;;17.20;99.90;;;;;;5030841;28;20479;-50
2022/04/29 08:39:49;;;;;;;7.47;3.20;;;17.50;99.90;;;;;;5025219;28;20589;-50
2022/04/29 08:42:18;;;;;;;7.53;2.60;;;17.40;99.90;;;;;;5022008;28;20968;-50
2022/04/29 08:44:47;;;;;;;7.47;2.57;;;17.80;99.90;;;;;;5026139;28;20490;-50
2022/04/29 08:47:15;;;;;;;7.50;2.63;;;17.90;99.90;;;;;;5029059;28;20593;-50
2022/04/29 08:49:41;;;;;;;7.33;2.40;;;18.40;99.90;;;;;;5028165;28;20460;-50
2022/04/29 08:52:09;;;;;;;7.83;3.00;;;18.40;99.90;;;;;;5027208;28;20547;-50
2022/04/29 09:00:16;;;;;;;4.13;2.10;;;18.00;99.90;;;;;;5003257;28;20439;-50
2022/04/29 09:02:44;;;;;;;5.57;3.40;;;18.00;99.90;;;;;;5028026;28;20458;-50
2022/04/29 09:05:11;;;;;;;5.00;2.80;;;18.60;99.90;;;;;;5028599;28;20460;-51
2022/04/29 09:07:55;;;;;;;9.40;3.20;;;18.30;99.90;;;;;;5022985;28;20571;-50
2022/04/29 09:10:24;;;;;;;3.60;3.27;;;18.50;99.90;;;;;;5027457;28;20917;-50
2022/04/29 09:12:52;;;;;;;6.93;3.20;;;18.70;99.90;;;;;;5028323;28;20470;-50
2022/04/29 09:15:20;;;;;;;4.87;2.57;;;18.50;99.90;;;;;;5029443;28;20463;-49
2022/04/29 09:17:49;;;;;;;7.57;2.87;;;18.20;99.90;;;;;;5030749;28;20474;-50
2022/04/29 09:20:18;;;;;;;11.57;3.57;;;18.20;99.90;;;;;;5025827;28;20539;-51
2022/04/29 09:22:47;;;;;;;6.67;3.63;;;18.20;99.90;;;;;;5027879;28;20809;-50
2022/04/29 09:25:14;;;;;;;10.57;3.67;;;18.60;99.90;;;;;;5029240;28;20545;-50
2022/04/29 09:27:55;;;;;;;5.90;3.30;;;18.30;99.90;;;;;;5029700;28;20487;-49
2022/04/29 09:30:34;;;;;;;11.10;4.60;;;18.10;99.90;;;;;;5026865;28;20517;-50
2022/04/29 09:33:00;;;;;;;11.27;4.27;;;18.70;99.90;;;;;;5029919;28;20505;-50
2022/04/29 09:35:40;;;;;;;8.40;4.00;;;19.80;99.90;;;;;;5028190;28;20554;-49
2022/04/29 09:40:53;;;;;;;12.63;4.87;;;19.90;99.90;;;;;;5029302;28;20438;-50
2022/04/29 09:43:36;;;;;;;7.67;3.93;;;20.20;99.90;;;;;;5030302;28;20554;-50
2022/04/29 09:46:18;;;;;;;9.73;5.20;;;20.10;99.90;;;;;;5025619;28;20518;-50
2022/04/29 09:49:07;;;;;;;9.87;4.20;;;20.60;99.90;;;;;;5032606;28;20798;-50
2022/04/29 09:51:46;;;;;;;6.53;2.73;;;20.10;99.90;;;;;;5030310;28;20443;-50
2022/04/29 09:54:16;;;;;;;11.90;3.30;;;20.90;99.90;;;;;;5031218;28;21214;-49
2022/04/29 09:56:43;;;;;;;9.73;3.80;;;20.30;99.90;;;;;;5032401;28;20499;-50
2022/04/29 09:59:10;;;;;;;38.07;4.40;;;19.60;99.90;;;;;;5026099;28;20509;-50
2022/04/29 10:01:38;;;;;;;11.60;3.33;;;20.40;99.90;;;;;;5033526;28;20542;-50
2022/04/29 10:04:05;;;;;;;12.57;3.63;;;20.10;99.90;;;;;;5032747;28;20997;-50
2022/04/29 10:06:34;;;;;;;3.50;3.00;;;19.70;99.90;;;;;;5033259;28;20486;-50
2022/04/29 10:09:01;;;;;;;6.53;4.00;;;20.20;99.90;;;;;;5032389;28;20485;-50
2022/04/29 10:11:29;;;;;;;3.57;2.97;;;20.10;99.90;;;;;;5029580;28;20467;-50
2022/04/29 10:14:00;;;;;;;7.90;2.87;;;20.10;99.90;;;;;;5031988;28;20487;-50
2022/04/29 10:16:31;;;;;;;8.80;3.17;;;20.20;99.90;;;;;;5024135;28;20942;-49
2022/04/29 10:21:48;;;;;;;9.30;3.13;;;20.70;99.90;;;;;;5031453;28;20524;-49
2022/04/29 10:24:15;;;;;;;7.30;3.23;;;20.30;99.90;;;;;;5026626;28;20533;-50
2022/04/29 10:26:41;;;;;;;4.80;3.20;;;20.60;99.90;;;;;;5032588;28;21062;-50
2022/04/29 10:29:08;;;;;;;6.80;3.80;;;20.80;99.90;;;;;;5033227;28;20529;-49
2022/04/29 10:31:35;;;;;;;4.23;3.20;;;21.70;99.90;;;;;;5033887;28;20443;-50
2022/04/29 10:34:28;;;;;;;9.97;3.23;;;20.90;99.90;;;;;;5034318;28;20825;-50
2022/04/29 10:36:54;;;;;;;4.90;2.90;;;21.20;99.90;;;;;;5031266;28;20490;-50
2022/04/29 10:39:22;;;;;;;10.40;3.00;;;20.90;99.90;;;;;;5035512;28;20514;-50
2022/04/29 10:42:03;;;;;;;5.80;3.40;;;20.80;99.90;;;;;;5031551;28;20458;-49
2022/04/29 10:44:30;;;;;;;7.63;3.37;;;21.30;99.90;;;;;;5032042;28;20829;-50
2022/04/29 10:47:17;;;;;;;4.00;3.17;;;21.40;99.90;;;;;;5032838;28;20482;-49
2022/04/29 10:49:45;;;;;;;5.57;3.30;;;21.00;99.90;;;;;;5031723;28;20490;-50
2022/04/29 10:52:26;;;;;;;2.33;2.13;;;21.80;99.90;;;;;;5032966;28;20498;-50
2022/04/29 10:54:57;;;;;;;8.93;2.73;;;22.40;99.90;;;;;;5032870;28;20477;-50
2022/04/29 10:57:37;;;;;;;6.40;2.80;;;22.00;99.90;;;;;;5032023;28;21015;-50
2022/04/29 11:00:11;;;;;;;5.50;3.27;;;22.10;99.90;;;;;;5029595;28;20481;-50
2022/04/29 11:02:37;;;;;;;6.10;3.47;;;20.80;99.90;;;;;;5051523;23;20569;-51
2022/04/29 11:05:07;;;;;;;6.73;2.83;;;21.00;99.90;;;;;;5032066;28;20533;-53
2022/04/29 11:07:39;;;;;;;6.50;3.03;;;20.90;99.90;;;;;;5029284;28;20797;-54
2022/04/29 11:10:07;;;;;;;5.73;2.40;;;21.60;99.90;;;;;;5033166;28;20454;-54
2022/04/29 11:12:36;;;;;;;8.13;3.47;;;22.10;99.90;;;;;;5033036;28;20466;-53
2022/04/29 11:15:09;;;;;;;9.67;5.20;;;22.70;99.90;;;;;;5032619;28;20538;-53
2022/04/29 11:17:37;;;;;;;8.17;3.47;;;23.00;99.90;;;;;;5029042;28;20499;-54
2022/04/29 11:20:19;;;;;;;4.63;2.90;;;22.80;99.90;;;;;;5031742;28;20470;-53
2022/04/29 11:25:49;;;;;;;5.87;2.90;;;21.60;99.90;;;;;;5030224;28;20582;-54
2022/04/29 11:28:16;;;;;;;5.33;2.60;;;21.00;99.90;;;;;;5030983;28;20828;-53
2022/04/29 11:30:42;;;;;;;3.43;2.40;;;21.20;99.90;;;;;;5031365;28;20541;-52
2022/04/29 11:33:09;;;;;;;3.43;2.33;;;21.10;99.90;;;;;;5025567;28;20545;-53
2022/04/29 11:35:37;;;;;;;8.10;2.80;;;21.20;99.90;;;;;;5029363;28;20491;-51
2022/04/29 11:38:04;;;;;;;11.30;4.10;;;20.90;99.90;;;;;;5031266;28;20830;-51
2022/04/29 11:40:30;;;;;;;3.33;2.30;;;21.10;99.90;;;;;;5031710;28;20547;-52
2022/04/29 11:42:57;;;;;;;4.47;2.67;;;21.40;99.90;;;;;;5027785;28;20574;-54
2022/04/29 11:45:25;;;;;;;10.50;3.20;;;21.80;99.90;;;;;;5029418;28;20502;-53
2022/04/29 11:47:52;;;;;;;4.80;2.77;;;20.90;99.90;;;;;;5027206;28;20544;-52
2022/04/29 11:50:31;;;;;;;7.20;2.90;;;20.90;99.90;;;;;;5031709;28;20459;-52
2022/04/29 11:53:05;;;;;;;18.33;2.37;;;20.90;99.90;;;;;;5031265;28;20466;-52
2022/04/29 11:55:32;;;;;;;3.90;2.30;;;20.60;99.90;;;;;;5031446;28;20465;-53
2022/04/29 11:57:59;;;;;;;5.33;2.60;;;21.10;99.90;;;;;;5028874;28;20497;-52
2022/04/29 12:00:27;;;;;;;3.07;1.80;;;20.80;99.90;;;;;;5030433;28;20495;-53
2022/04/29 12:02:54;;;;;;;3.90;2.03;;;20.20;99.90;;;;;;5030855;28;20840;-53
2022/04/29 12:05:23;;;;;;;8.13;2.53;;;20.50;99.90;;;;;;5028538;28;20554;-54
2022/04/29 12:07:50;;;;;;;9.43;2.50;;;20.70;99.90;;;;;;5029179;28;20892;-53
2022/04/29 12:10:19;;;;;;;3.90;2.30;;;20.20;99.90;;;;;;5032047;28;20558;-53
2022/04/29 12:12:47;;;;;;;4.67;2.13;;;20.10;99.90;;;;;;5030714;28;20513;-53
2022/04/29 12:15:17;;;;;;;8.40;2.80;;;20.40;99.90;;;;;;5030278;28;20487;-51
2022/04/29 12:17:43;;;;;;;4.80;2.30;;;20.10;99.90;;;;;;5029215;28;20543;-54
2022/04/29 12:20:17;;;;;;;3.43;2.17;;;20.00;99.90;;;;;;5030241;28;20553;-53
2022/04/29 12:22:43;;;;;;;5.27;2.33;;;20.60;99.90;;;;;;5031656;28;20499;-50
2022/04/29 12:25:29;;;;;;;2.70;2.13;;;21.20;99.90;;;;;;5028880;28;20486;-52
2022/04/29 12:28:13;;;;;;;4.97;2.43;;;21.60;99.90;;;;;;5029377;28;20465;-54
2022/04/29 12:36:13;;;;;;;4.87;2.40;;;20.10;99.90;;;;;;5028987;28;20931;-54
2022/04/29 12:38:41;;;;;;;19.47;2.70;;;19.90;99.90;;;;;;5029713;28;20451;-53
2022/04/29 12:41:21;;;;;;;9.30;2.67;;;19.90;99.90;;;;;;5030240;28;20971;-53
2022/04/29 12:43:47;;;;;;;7.50;2.33;;;20.00;99.90;;;;;;5030263;28;20490;-53
2022/04/29 12:46:15;;;;;;;3.40;2.67;;;20.40;99.90;;;;;;5028764;28;20498;-52
2022/04/29 12:48:47;;;;;;;3.90;2.33;;;21.30;99.90;;;;;;5025176;28;20478;-53
2022/04/29 12:51:23;;;;;;;6.03;2.40;;;21.70;99.90;;;;;;5028600;28;20825;-53
2022/04/29 12:53:49;;;;;;;2.90;2.57;;;21.70;99.90;;;;;;5030690;28;20507;-53
2022/04/29 12:56:25;;;;;;;2.77;2.17;;;21.40;99.90;;;;;;5029773;28;20494;-53
2022/04/29 12:58:51;;;;;;;10.50;2.40;;;21.40;99.90;;;;;;5028357;28;20455;-53
2022/04/29 13:01:18;;;;;;;8.60;2.70;;;21.60;99.90;;;;;;5031098;28;20902;-52
2022/04/29 13:03:50;;;;;;;10.03;2.80;;;20.90;99.90;;;;;;5029015;28;20569;-53
2022/04/29 13:06:20;;;;;;;4.33;2.63;;;20.50;99.90;;;;;;5029042;28;20495;-51
2022/04/29 13:08:48;;;;;;;3.70;2.40;;;20.70;99.90;;;;;;5029539;28;20515;-53
2022/04/29 13:11:17;;;;;;;8.77;3.17;;;21.00;99.90;;;;;;5030175;28;20459;-51
2022/04/29 13:13:45;;;;;;;3.33;2.60;;;20.60;99.90;;;;;;5030124;28;20492;-54
2022/04/29 13:16:12;;;;;;;5.30;2.50;;;19.60;99.90;;;;;;5028941;28;20541;-52
2022/04/29 13:18:38;;;;;;;2.73;2.03;;;19.40;99.90;;;;;;5028265;28;20463;-53
2022/04/29 13:21:08;;;;;;;7.90;2.57;;;19.40;99.90;;;;;;5034814;28;20446;-53
2022/04/29 13:23:35;;;;;;;4.27;2.10;;;19.50;99.90;;;;;;5032583;28;20561;-51
2022/04/29 13:26:02;;;;;;;7.10;2.30;;;19.90;99.90;;;;;;5025675;28;20571;-52
2022/04/29 13:28:29;;;;;;;10.27;2.03;;;20.20;99.90;;;;;;5029396;28;20480;-51
2022/04/29 13:30:57;;;;;;;13.83;2.83;;;20.20;99.90;;;;;;5033881;28;20462;-54